createdAt,value
2022-09-15T00:02:25.227Z,14.10
2022-09-15T00:05:00.890Z,15.50
2022-09-15T00:07:40.541Z,13.60
2022-09-15T00:10:14.237Z,16.10
2022-09-15T00:12:49.508Z,15.40
2022-09-15T00:15:25.821Z,15.90
2022-09-15T00:18:09.129Z,15.10
2022-09-15T00:20:45.653Z,16.50
2022-09-15T00:23:28.900Z,13.60
2022-09-15T00:26:12.828Z,14.30
2022-09-15T00:28:45.418Z,14.00
2022-09-15T00:31:20.035Z,15.50
2022-09-15T00:33:57.220Z,14.40
2022-09-15T00:36:29.771Z,14.60
2022-09-15T00:39:02.187Z,14.30
2022-09-15T00:41:39.560Z,15.60
2022-09-15T00:44:52.546Z,15.20
2022-09-15T00:47:28.453Z,15.70
2022-09-15T00:50:07.927Z,14.00
2022-09-15T00:52:45.496Z,14.30
2022-09-15T00:55:23.663Z,14.20
2022-09-15T00:58:00.617Z,14.70
2022-09-15T01:00:32.912Z,13.30
2022-09-15T01:03:05.473Z,17.40
2022-09-15T01:05:44.936Z,18.80
2022-09-15T01:08:27.745Z,16.50
2022-09-15T01:11:00.601Z,15.20
2022-09-15T01:13:32.934Z,13.80
2022-09-15T01:16:14.561Z,13.20
2022-09-15T01:18:55.434Z,13.50
2022-09-15T01:21:42.143Z,16.90
2022-09-15T01:24:43.602Z,15.80
2022-09-15T01:27:41.635Z,17.60
2022-09-15T01:30:18.522Z,16.50
2022-09-15T01:33:14.375Z,13.20
2022-09-15T01:35:56.969Z,16.50
2022-09-15T01:38:37.404Z,15.50
2022-09-15T01:41:18.342Z,13.40
2022-09-15T01:44:06.448Z,14.30
2022-09-15T01:46:47.774Z,15.40
2022-09-15T01:49:24.312Z,14.70
2022-09-15T01:51:59.671Z,14.50
2022-09-15T01:54:36.356Z,13.00
2022-09-15T01:57:08.671Z,16.90
2022-09-15T01:59:40.995Z,15.00
2022-09-15T02:02:21.191Z,13.90
2022-09-15T02:05:07.523Z,16.40
2022-09-15T02:07:52.210Z,13.50
2022-09-15T02:10:33.762Z,12.90
2022-09-15T02:13:18.050Z,17.20
2022-09-15T02:15:53.591Z,13.60
2022-09-15T02:18:39.368Z,14.60
2022-09-15T02:21:19.646Z,12.30
2022-09-15T02:23:56.429Z,15.50
2022-09-15T02:26:32.900Z,15.20
2022-09-15T02:29:10.365Z,13.80
2022-09-15T02:31:45.155Z,12.30
2022-09-15T02:34:23.503Z,14.80
2022-09-15T02:36:59.802Z,12.00
2022-09-15T02:39:44.648Z,10.30
2022-09-15T02:42:27.053Z,10.90
2022-09-15T02:45:02.865Z,10.40
2022-09-15T02:47:37.857Z,11.60
2022-09-15T02:50:31.041Z,10.10
2022-09-15T02:53:06.042Z,10.10
2022-09-15T02:55:38.431Z,10.00
2022-09-15T02:58:13.063Z,12.10
2022-09-15T03:00:47.975Z,8.20
2022-09-15T03:03:22.137Z,10.00
2022-09-15T03:05:54.533Z,10.60
2022-09-15T03:08:35.826Z,10.50
2022-09-15T03:11:16.114Z,9.30
2022-09-15T03:13:54.555Z,8.80
2022-09-15T03:16:47.601Z,8.20
2022-09-15T03:19:19.783Z,7.10
2022-09-15T03:22:00.808Z,7.80
2022-09-15T03:24:33.798Z,9.00
2022-09-15T03:27:25.857Z,9.00
2022-09-15T03:29:58.124Z,8.40
2022-09-15T03:32:39.589Z,6.30
2022-09-15T03:35:14.635Z,7.10
2022-09-15T03:37:55.885Z,7.00
2022-09-15T03:40:30.914Z,8.10
2022-09-15T03:43:18.098Z,7.60
2022-09-15T03:46:00.984Z,10.00
2022-09-15T03:48:40.603Z,9.80
2022-09-15T03:51:15.282Z,6.40
2022-09-15T03:54:00.379Z,4.90
2022-09-15T03:56:35.205Z,6.80
2022-09-15T03:59:20.590Z,4.00
2022-09-15T04:01:55.496Z,4.50
2022-09-15T04:04:27.753Z,3.80
2022-09-15T04:07:11.130Z,3.10
2022-09-15T04:09:46.154Z,2.70
2022-09-15T04:12:21.529Z,2.90
2022-09-15T04:15:04.118Z,2.30
2022-09-15T04:17:40.443Z,2.30
2022-09-15T04:20:13.291Z,2.20
2022-09-15T04:23:07.109Z,2.30
2022-09-15T04:25:40.241Z,2.10
2022-09-15T04:28:15.099Z,1.60
2022-09-15T04:30:47.159Z,2.10
2022-09-15T04:33:19.528Z,1.50
2022-09-15T04:35:51.893Z,2.50
2022-09-15T04:38:33.462Z,2.50
2022-09-15T04:41:14.215Z,1.80
2022-09-15T04:43:49.741Z,2.90
2022-09-15T04:46:33.083Z,4.50
2022-09-15T04:49:26.120Z,2.90
2022-09-15T04:52:09.781Z,2.30
2022-09-15T04:54:42.526Z,2.00
2022-09-15T04:57:35.856Z,2.50
2022-09-15T05:00:10.090Z,1.30
2022-09-15T05:02:52.098Z,2.80
2022-09-15T05:05:37.967Z,2.00
2022-09-15T05:08:19.645Z,1.30
2022-09-15T05:11:03.885Z,3.10
2022-09-15T05:13:39.675Z,1.60
2022-09-15T05:16:24.633Z,1.60
2022-09-15T05:19:06.931Z,3.60
2022-09-15T05:21:39.627Z,2.40
2022-09-15T05:24:13.329Z,1.70
2022-09-15T05:26:45.719Z,1.90
2022-09-15T05:29:18.049Z,1.60
2022-09-15T05:31:53.205Z,2.10
2022-09-15T05:34:28.585Z,2.50
2022-09-15T05:37:21.013Z,5.50
2022-09-15T05:39:55.682Z,2.30
2022-09-15T05:42:37.991Z,2.70
2022-09-15T05:45:13.864Z,3.30
2022-09-15T05:47:49.110Z,2.90
2022-09-15T05:50:21.338Z,3.60
2022-09-15T05:53:14.126Z,4.50
2022-09-15T05:55:46.459Z,4.40
2022-09-15T05:58:18.509Z,4.20
2022-09-15T06:00:56.704Z,3.80
2022-09-15T06:03:39.208Z,6.30
2022-09-15T06:06:22.080Z,3.80
2022-09-15T06:08:59.133Z,5.00
2022-09-15T06:11:36.753Z,4.10
2022-09-15T06:14:15.427Z,5.80
2022-09-15T06:17:01.674Z,8.90
2022-09-15T06:19:37.483Z,8.00
2022-09-15T06:22:14.067Z,9.70
2022-09-15T06:25:07.088Z,5.90
2022-09-15T06:27:43.334Z,6.80
2022-09-15T06:30:26.608Z,8.90
2022-09-15T06:33:03.397Z,6.00
2022-09-15T06:35:35.593Z,5.10
2022-09-15T06:38:08.587Z,4.50
2022-09-15T06:40:41.032Z,4.50
2022-09-15T06:43:13.373Z,4.20
2022-09-15T06:45:54.756Z,4.60
2022-09-15T06:48:29.635Z,4.70
2022-09-15T06:51:06.509Z,5.40
2022-09-15T06:53:52.018Z,11.30
2022-09-15T06:56:38.176Z,9.00
2022-09-15T06:59:24.673Z,11.90
2022-09-15T07:02:12.102Z,5.80
2022-09-15T07:04:44.961Z,4.80
2022-09-15T07:07:21.073Z,4.40
2022-09-15T07:09:58.331Z,5.50
2022-09-15T07:12:39.874Z,3.90
2022-09-15T07:15:13.620Z,10.20
2022-09-15T07:17:48.951Z,15.50
2022-09-15T07:20:23.042Z,12.00
2022-09-15T07:22:55.880Z,13.00
2022-09-15T07:25:30.415Z,14.00
2022-09-15T07:28:05.794Z,13.20
2022-09-15T07:30:41.627Z,11.60
2022-09-15T07:33:17.748Z,9.80
2022-09-15T07:36:10.509Z,12.30
2022-09-15T07:38:54.146Z,15.50
2022-09-15T07:41:31.411Z,11.00
2022-09-15T07:44:04.200Z,9.10
2022-09-15T07:46:38.607Z,7.60
2022-09-15T07:49:12.816Z,9.10
2022-09-15T07:51:47.265Z,9.30
2022-09-15T07:54:22.916Z,8.30
2022-09-15T07:57:06.449Z,10.70
2022-09-15T07:59:41.226Z,8.90
2022-09-15T08:02:24.817Z,13.90
2022-09-15T08:05:07.996Z,10.60
2022-09-15T08:07:45.835Z,7.90
2022-09-15T08:10:39.126Z,9.50
2022-09-15T08:13:14.060Z,7.50
2022-09-15T08:18:42.114Z,9.30
2022-09-15T08:21:25.902Z,8.70
2022-09-15T08:24:18.460Z,8.10
2022-09-15T08:26:52.964Z,10.50
2022-09-15T08:29:25.876Z,10.30
2022-09-15T08:32:01.287Z,7.40
2022-09-15T08:34:36.315Z,8.60
2022-09-15T08:37:19.405Z,7.10
2022-09-15T08:39:57.497Z,5.90
2022-09-15T08:42:36.500Z,12.30
2022-09-15T08:45:21.758Z,9.70
2022-09-15T08:48:16.667Z,8.20
2022-09-15T08:51:07.115Z,8.30
2022-09-15T08:53:45.717Z,10.60
2022-09-15T08:56:21.086Z,9.20
2022-09-15T08:58:53.423Z,10.30
2022-09-15T09:01:37.830Z,9.80
2022-09-15T09:04:33.904Z,10.20
2022-09-15T09:07:22.899Z,9.40
2022-09-15T09:10:01.686Z,10.00
2022-09-15T09:13:07.116Z,10.70
2022-09-15T09:15:55.441Z,8.90
2022-09-15T09:18:57.160Z,7.90
2022-09-15T09:21:44.220Z,6.90
2022-09-15T09:24:26.258Z,6.60
2022-09-15T09:27:04.571Z,10.60
2022-09-15T09:29:41.057Z,7.30
2022-09-15T09:32:22.342Z,7.00
2022-09-15T09:35:00.488Z,8.10
2022-09-15T09:37:36.387Z,7.70
2022-09-15T09:40:13.618Z,9.80
2022-09-15T09:42:46.581Z,8.60
2022-09-15T09:45:22.851Z,5.60
2022-09-15T09:48:03.409Z,5.70
2022-09-15T09:53:31.358Z,14.70
2022-09-15T09:56:26.799Z,9.40
2022-09-15T09:59:03.385Z,8.80
2022-09-15T10:01:35.714Z,7.90
2022-09-15T10:04:21.236Z,8.20
2022-09-15T10:06:58.406Z,8.80
2022-09-15T10:09:33.400Z,7.60
2022-09-15T10:12:08.291Z,6.00
2022-09-15T10:14:45.579Z,8.90
2022-09-15T10:17:39.711Z,7.20
2022-09-15T10:20:35.046Z,11.00
2022-09-15T10:23:25.028Z,9.50
2022-09-15T10:26:00.480Z,9.60
2022-09-15T10:28:33.130Z,7.90
2022-09-15T10:31:28.687Z,9.20
2022-09-15T10:34:21.218Z,6.70
2022-09-15T10:37:00.328Z,7.70
2022-09-15T10:39:39.592Z,6.60
2022-09-15T10:42:20.322Z,11.20
2022-09-15T10:45:04.355Z,6.30
2022-09-15T10:47:50.410Z,6.60
2022-09-15T10:50:32.232Z,7.20
2022-09-15T10:53:14.682Z,9.60
2022-09-15T10:55:59.918Z,8.10
2022-09-15T10:58:49.427Z,7.40
2022-09-15T11:01:36.343Z,4.50
2022-09-15T11:04:32.334Z,7.40
2022-09-15T11:07:13.148Z,8.80
2022-09-15T11:09:51.230Z,8.70
2022-09-15T11:16:04.585Z,6.40
2022-09-15T11:18:59.777Z,8.40
2022-09-15T11:21:40.841Z,9.70
2022-09-15T11:24:27.391Z,11.30
2022-09-15T11:27:17.701Z,9.00
2022-09-15T11:30:03.999Z,7.90
2022-09-15T11:32:45.015Z,7.10
2022-09-15T11:35:35.597Z,8.40
2022-09-15T11:38:36.727Z,9.90
2022-09-15T11:41:21.031Z,11.10
2022-09-15T11:44:16.819Z,12.90
2022-09-15T11:47:04.243Z,6.90
2022-09-15T11:49:41.757Z,6.80
2022-09-15T11:52:26.090Z,8.70
2022-09-15T11:55:06.515Z,6.20
2022-09-15T11:57:46.925Z,6.90
2022-09-15T12:00:23.221Z,8.50
2022-09-15T12:03:11.559Z,7.90
2022-09-15T12:05:49.298Z,6.20
2022-09-15T12:08:28.764Z,9.70
2022-09-15T12:11:14.180Z,10.10
2022-09-15T12:13:47.973Z,9.70
2022-09-15T12:16:20.929Z,8.90
2022-09-15T12:18:56.448Z,7.10
2022-09-15T12:21:38.848Z,10.30
2022-09-15T12:24:18.296Z,10.50
2022-09-15T12:26:50.940Z,9.80
2022-09-15T12:29:42.211Z,7.50
2022-09-15T12:32:24.752Z,9.90
2022-09-15T12:35:33.301Z,6.20
2022-09-15T12:38:15.651Z,5.90
2022-09-15T12:40:57.531Z,6.90
2022-09-15T12:43:31.820Z,7.90
2022-09-15T12:46:07.748Z,6.60
2022-09-15T12:48:46.800Z,10.30
2022-09-15T12:51:28.120Z,6.00
2022-09-15T12:54:23.086Z,6.30
2022-09-15T12:56:57.188Z,6.70
2022-09-15T12:59:30.517Z,5.00
2022-09-15T13:02:02.869Z,7.60
2022-09-15T13:04:54.894Z,6.50
2022-09-15T13:07:55.585Z,6.80
2022-09-15T13:10:39.522Z,8.80
2022-09-15T13:13:39.992Z,7.50
2022-09-15T13:16:19.560Z,8.30
2022-09-15T13:19:04.156Z,10.70
2022-09-15T13:21:39.208Z,10.30
2022-09-15T13:24:25.348Z,10.70
2022-09-15T13:27:00.432Z,6.50
2022-09-15T13:29:33.942Z,9.10
2022-09-15T13:32:28.130Z,9.80
2022-09-15T13:35:28.175Z,9.40
2022-09-15T13:38:27.639Z,6.90
2022-09-15T13:41:43.053Z,7.70
2022-09-15T13:45:03.405Z,10.70
2022-09-15T13:47:46.445Z,13.60
2022-09-15T13:50:24.884Z,26.00
2022-09-15T13:53:17.562Z,18.00
2022-09-15T13:55:55.889Z,19.20
2022-09-15T14:01:38.915Z,25.50
2022-09-15T14:04:18.685Z,17.00
2022-09-15T14:07:01.741Z,34.90
2022-09-15T14:09:38.688Z,33.90
2022-09-15T14:12:15.127Z,18.80
2022-09-15T14:14:53.763Z,18.10
2022-09-15T14:17:31.172Z,15.00
2022-09-15T14:23:15.868Z,16.90
2022-09-15T14:25:50.117Z,9.70
2022-09-15T14:28:33.633Z,71.10
2022-09-15T14:31:08.791Z,11.60
2022-09-15T14:33:51.536Z,11.20
2022-09-15T14:36:29.718Z,10.00
2022-09-15T14:39:23.708Z,10.10
2022-09-15T14:47:38.117Z,6.00
2022-09-15T14:50:14.328Z,9.10
2022-09-15T14:52:48.644Z,11.00
2022-09-15T14:55:36.939Z,9.40
2022-09-15T14:58:21.868Z,8.20
2022-09-15T15:01:01.578Z,10.10
2022-09-15T15:03:40.474Z,9.20
2022-09-15T15:06:29.147Z,7.80
2022-09-15T15:09:06.937Z,12.00
2022-09-15T15:11:42.911Z,10.70
2022-09-15T15:14:24.678Z,6.50
2022-09-15T15:17:02.230Z,11.20
2022-09-15T15:19:38.332Z,7.60
2022-09-15T15:22:20.485Z,6.50
2022-09-15T15:24:54.519Z,12.40
2022-09-15T15:27:42.998Z,7.10
2022-09-15T15:30:44.711Z,8.20
2022-09-15T15:33:28.533Z,8.40
2022-09-15T15:36:11.939Z,7.70
2022-09-15T15:38:52.427Z,18.10
2022-09-15T15:41:27.275Z,15.80
2022-09-15T15:44:08.997Z,18.10
2022-09-15T15:46:53.558Z,35.60
2022-09-15T15:49:29.294Z,10.80
2022-09-15T15:52:09.918Z,6.80
2022-09-15T15:54:42.306Z,5.50
2022-09-15T15:57:27.214Z,5.40
2022-09-15T16:00:01.862Z,11.20
2022-09-15T16:02:36.350Z,8.80
2022-09-15T16:05:20.730Z,6.90
2022-09-15T16:07:58.630Z,5.00
2022-09-15T16:10:42.987Z,7.80
2022-09-15T16:13:20.620Z,7.70
2022-09-15T16:16:16.084Z,7.10
2022-09-15T16:18:48.935Z,5.20
2022-09-15T16:21:29.313Z,7.10
2022-09-15T16:24:01.681Z,10.70
2022-09-15T16:26:35.695Z,11.70
2022-09-15T16:29:08.363Z,11.40
2022-09-15T16:31:40.693Z,15.70
2022-09-15T16:34:17.748Z,19.30
2022-09-15T16:36:50.159Z,23.50
2022-09-15T16:39:22.333Z,34.50
2022-09-15T16:42:04.764Z,40.80
2022-09-15T16:44:37.110Z,12.80
2022-09-15T16:47:17.094Z,14.00
2022-09-15T16:50:03.597Z,12.90
2022-09-15T16:52:35.845Z,22.40
2022-09-15T16:55:23.481Z,10.00
2022-09-15T16:58:00.024Z,13.90
2022-09-15T17:00:38.038Z,13.10
2022-09-15T17:03:16.569Z,14.10
2022-09-15T17:05:51.039Z,11.90
2022-09-15T17:08:38.253Z,13.30
2022-09-15T17:11:17.201Z,10.80
2022-09-15T17:13:53.625Z,13.80
2022-09-15T17:16:26.326Z,14.40
2022-09-15T17:18:58.543Z,10.90
2022-09-15T17:21:53.077Z,12.80
2022-09-15T17:24:25.352Z,17.70
2022-09-15T17:26:57.701Z,20.00
2022-09-15T17:29:30.159Z,21.30
2022-09-15T17:32:02.552Z,13.20
2022-09-15T17:34:34.897Z,9.40
2022-09-15T17:37:07.197Z,11.00
2022-09-15T17:39:39.662Z,8.50
2022-09-15T17:42:12.826Z,9.70
2022-09-15T17:44:45.156Z,11.10
2022-09-15T17:47:17.683Z,11.10
2022-09-15T17:49:50.039Z,23.40
2022-09-15T17:52:24.408Z,14.60
2022-09-15T17:55:19.652Z,11.10
2022-09-15T17:57:56.699Z,15.10
2022-09-15T18:00:31.297Z,29.80
2022-09-15T18:03:15.848Z,19.90
2022-09-15T18:05:48.476Z,16.80
2022-09-15T18:08:20.924Z,13.30
2022-09-15T18:10:55.169Z,20.00
2022-09-15T18:13:30.139Z,22.90
2022-09-15T18:16:11.867Z,48.20
2022-09-15T18:18:44.792Z,41.10
2022-09-15T18:21:28.922Z,37.00
2022-09-15T18:24:01.994Z,42.30
2022-09-15T18:26:34.325Z,60.00
2022-09-15T18:29:16.271Z,29.90
2022-09-15T18:31:51.269Z,42.90
2022-09-15T18:34:31.659Z,23.40
2022-09-15T18:37:12.230Z,18.60
2022-09-15T18:39:45.291Z,17.50
2022-09-15T18:42:29.901Z,31.10
2022-09-15T18:45:10.796Z,37.00
2022-09-15T18:47:54.449Z,23.40
2022-09-15T18:50:27.430Z,26.20
2022-09-15T18:53:20.382Z,31.00
2022-09-15T18:56:12.466Z,27.60
2022-09-15T18:58:45.726Z,32.90
2022-09-15T19:01:29.936Z,22.70
2022-09-15T19:04:02.922Z,16.30
2022-09-15T19:06:55.773Z,27.80
2022-09-15T19:09:56.375Z,21.30
2022-09-15T19:12:29.772Z,24.50
2022-09-15T19:15:12.657Z,46.70
2022-09-15T19:17:48.803Z,35.00
2022-09-15T19:20:27.043Z,34.40
2022-09-15T19:23:02.787Z,30.40
2022-09-15T19:25:41.807Z,23.60
2022-09-15T19:28:20.447Z,21.20
2022-09-15T19:30:53.709Z,19.10
2022-09-15T19:33:35.464Z,18.70
2022-09-15T19:36:27.920Z,14.10
2022-09-15T19:39:04.967Z,15.10
2022-09-15T19:41:40.952Z,12.40
2022-09-15T19:44:33.899Z,16.10
2022-09-15T19:47:09.287Z,10.50
2022-09-15T19:49:44.490Z,15.60
2022-09-15T19:52:28.535Z,9.00
2022-09-15T19:55:00.971Z,10.20
2022-09-15T19:57:38.496Z,11.20
2022-09-15T20:00:16.138Z,10.80
2022-09-15T20:02:54.350Z,10.80
2022-09-15T20:05:36.960Z,10.80
2022-09-15T20:08:12.076Z,10.00
2022-09-15T20:10:55.341Z,10.70
2022-09-15T20:13:32.102Z,11.20
2022-09-15T20:16:09.708Z,10.40
2022-09-15T20:19:04.536Z,12.10
2022-09-15T20:21:54.253Z,12.20
2022-09-15T20:24:38.482Z,14.10
2022-09-15T20:27:15.035Z,11.20
2022-09-15T20:29:49.975Z,12.50
2022-09-15T20:32:35.048Z,11.40
2022-09-15T20:35:08.701Z,11.20
2022-09-15T20:37:41.954Z,13.20
2022-09-15T20:40:35.385Z,9.70
2022-09-15T20:43:18.941Z,10.90
2022-09-15T20:46:00.134Z,12.50
2022-09-15T20:48:39.347Z,12.60
2022-09-15T20:51:16.983Z,12.60
2022-09-15T20:53:51.633Z,11.60
2022-09-15T20:56:30.860Z,13.00
2022-09-15T20:59:10.876Z,11.80
2022-09-15T21:01:46.907Z,14.40
2022-09-15T21:04:32.920Z,11.70
2022-09-15T21:07:25.461Z,10.80
2022-09-15T21:10:01.095Z,13.10
2022-09-15T21:12:34.216Z,13.00
2022-09-15T21:15:29.858Z,10.70
2022-09-15T21:18:11.600Z,8.50
2022-09-15T21:21:06.189Z,10.60
2022-09-15T21:23:50.745Z,9.60
2022-09-15T21:26:31.153Z,10.70
2022-09-15T21:29:13.477Z,6.50
2022-09-15T21:31:45.866Z,7.70
2022-09-15T21:34:38.212Z,7.50
2022-09-15T21:37:15.079Z,8.40
2022-09-15T21:39:50.449Z,5.60
2022-09-15T21:42:39.596Z,8.00
2022-09-15T21:45:21.726Z,10.70
2022-09-15T21:48:07.482Z,9.90
2022-09-15T21:50:52.397Z,6.30
2022-09-15T21:53:25.155Z,9.00
2022-09-15T21:56:03.279Z,9.40
2022-09-15T21:58:42.830Z,10.80
2022-09-15T22:01:20.685Z,12.10
2022-09-15T22:03:57.133Z,13.00
2022-09-15T22:06:43.296Z,10.70
2022-09-15T22:09:24.704Z,9.50
2022-09-15T22:11:57.172Z,8.40
2022-09-15T22:14:40.454Z,11.20
2022-09-15T22:17:21.693Z,9.50
2022-09-15T22:19:53.875Z,8.50
2022-09-15T22:22:30.117Z,9.10
2022-09-15T22:25:05.126Z,7.60
2022-09-15T22:27:37.786Z,10.20
2022-09-15T22:30:12.749Z,11.40
2022-09-15T22:32:44.932Z,12.00
2022-09-15T22:35:29.985Z,10.40
2022-09-15T22:38:05.317Z,8.00
2022-09-15T22:40:45.077Z,8.20
2022-09-15T22:43:31.539Z,7.80
2022-09-15T22:46:14.001Z,7.40
2022-09-15T22:49:06.571Z,5.10
2022-09-15T22:51:41.284Z,4.20
2022-09-15T22:54:20.979Z,5.60
2022-09-15T22:57:13.287Z,6.20
2022-09-15T22:59:56.890Z,8.70
2022-09-15T23:02:49.753Z,6.60
2022-09-15T23:05:33.006Z,8.40
2022-09-15T23:08:18.041Z,5.60
2022-09-15T23:10:50.231Z,6.20
2022-09-15T23:13:25.764Z,5.70
2022-09-15T23:16:09.819Z,7.30
2022-09-15T23:19:02.606Z,7.50
2022-09-15T23:21:43.667Z,6.80
2022-09-15T23:24:18.890Z,7.80
2022-09-15T23:27:04.606Z,6.20
2022-09-15T23:29:39.322Z,6.60
2022-09-15T23:32:11.718Z,4.70
2022-09-15T23:34:50.005Z,5.10
2022-09-15T23:37:24.585Z,4.50
2022-09-15T23:39:59.376Z,6.70
2022-09-15T23:42:38.797Z,4.40
2022-09-15T23:45:31.461Z,5.80
2022-09-15T23:48:09.132Z,4.50
2022-09-15T23:50:48.507Z,9.20
2022-09-15T23:53:24.163Z,6.50
2022-09-15T23:56:16.877Z,7.90
2022-09-15T23:58:52.504Z,8.20
